Time;durP1;ratioP1;P1;durP2;ratioP2;P2;SDS_P1;SDS_P2;PMS_P1;PMS_P2;Temp;Humidity;BMP_temperature;BMP_pressure;BME280_temperature;BME280_humidity;BME280_pressure;Samples;Min_cycle;Max_cycle;Signal;HPM_P1;HPM_P2
2020/12/11 00:01:11;;;;;;;26.75;16.92;;;0.30;1.00;;;;;;4993149;28;20410;-62
2020/12/11 00:03:37;;;;;;;25.17;16.80;;;0.30;1.00;;;;;;4993048;28;20779;-62
2020/12/11 00:06:03;;;;;;;27.15;17.95;;;0.40;1.00;;;;;;4992815;28;20418;-62
2020/12/11 00:08:30;;;;;;;27.05;17.88;;;0.50;1.00;;;;;;4992643;28;20414;-62
2020/12/11 00:10:57;;;;;;;24.30;17.87;;;0.50;1.00;;;;;;4992367;28;20433;-62
2020/12/11 00:13:23;;;;;;;23.70;17.65;;;0.50;1.00;;;;;;4992412;28;20414;-61
2020/12/11 00:15:49;;;;;;;24.45;17.30;;;0.60;1.00;;;;;;4992786;28;20410;-62
2020/12/11 00:18:15;;;;;;;25.17;17.88;;;0.60;1.00;;;;;;4992622;28;20449;-60
2020/12/11 00:20:41;;;;;;;28.75;18.15;;;0.60;1.00;;;;;;4992597;28;20410;-62
2020/12/11 00:23:07;;;;;;;29.17;18.08;;;0.60;1.00;;;;;;4992385;28;20910;-62
2020/12/11 00:25:35;;;;;;;25.85;17.55;;;0.60;1.00;;;;;;4992330;28;20425;-62
2020/12/11 00:28:02;;;;;;;30.48;19.05;;;0.50;1.00;;;;;;4992383;28;20414;-62
2020/12/11 00:30:28;;;;;;;27.27;17.95;;;0.60;1.00;;;;;;4992222;28;20918;-62
2020/12/11 00:32:54;;;;;;;24.83;18.00;;;0.50;1.00;;;;;;4992449;28;20415;-62
2020/12/11 00:35:20;;;;;;;27.55;16.33;;;0.60;1.00;;;;;;4992293;28;20414;-60
2020/12/11 00:37:46;;;;;;;26.33;18.10;;;0.60;1.00;;;;;;4992192;28;20426;-62
2020/12/11 00:40:12;;;;;;;26.13;17.92;;;0.50;1.00;;;;;;4992291;28;20421;-61
2020/12/11 00:42:39;;;;;;;30.02;17.83;;;0.50;1.00;;;;;;4992146;28;20476;-60
2020/12/11 00:45:05;;;;;;;26.08;18.17;;;0.60;1.00;;;;;;4992351;28;20414;-62
2020/12/11 00:47:32;;;;;;;27.92;17.58;;;0.70;1.00;;;;;;4991925;28;20418;-62
2020/12/11 00:49:58;;;;;;;27.42;18.05;;;0.70;1.00;;;;;;4991990;28;20830;-62
2020/12/11 00:52:24;;;;;;;25.83;17.17;;;0.70;1.00;;;;;;4991999;28;20477;-61
2020/12/11 00:54:50;;;;;;;28.23;17.85;;;0.60;1.00;;;;;;4991962;28;20538;-61
2020/12/11 00:57:16;;;;;;;25.27;16.67;;;0.80;1.00;;;;;;4992038;28;20476;-63
2020/12/11 00:59:43;;;;;;;27.80;18.38;;;0.80;1.00;;;;;;4991861;28;20416;-62
2020/12/11 01:02:09;;;;;;;26.98;19.13;;;0.80;1.00;;;;;;4991914;28;20422;-62
2020/12/11 01:04:35;;;;;;;26.40;18.10;;;0.70;1.00;;;;;;4991879;28;20486;-62
2020/12/11 01:07:02;;;;;;;23.38;18.23;;;0.70;1.00;;;;;;4991517;28;20823;-62
2020/12/11 01:09:28;;;;;;;25.55;18.10;;;0.80;1.00;;;;;;4991746;28;20799;-60
2020/12/11 01:11:54;;;;;;;28.17;17.42;;;0.90;1.00;;;;;;4991748;28;20883;-59
2020/12/11 01:14:20;;;;;;;27.77;17.70;;;0.80;1.00;;;;;;4992464;28;20501;-57
2020/12/11 01:16:47;;;;;;;25.98;17.55;;;0.80;1.00;;;;;;4991592;28;20426;-55
2020/12/11 01:19:14;;;;;;;24.65;16.52;;;0.80;1.00;;;;;;4991818;28;20437;-60
2020/12/11 01:21:40;;;;;;;23.37;15.50;;;0.90;1.00;;;;;;4991777;28;20457;-59
2020/12/11 01:24:06;;;;;;;27.15;18.85;;;0.90;1.00;;;;;;4990814;28;20477;-57
2020/12/11 01:26:33;;;;;;;24.92;17.30;;;1.00;1.00;;;;;;4991766;28;20838;-57
2020/12/11 01:28:59;;;;;;;26.13;17.10;;;1.00;1.00;;;;;;4991672;28;20441;-58
2020/12/11 01:31:25;;;;;;;24.52;16.45;;;1.00;1.00;;;;;;4991583;28;20434;-60
2020/12/11 01:33:52;;;;;;;26.88;16.95;;;1.00;1.00;;;;;;4991668;28;20415;-60
2020/12/11 01:36:25;;;;;;;24.00;16.70;;;0.90;1.00;;;;;;4991542;28;20406;-62
2020/12/11 01:38:51;;;;;;;28.52;18.60;;;1.00;1.00;;;;;;4991708;28;20463;-60
2020/12/11 01:41:17;;;;;;;24.55;17.85;;;0.90;1.00;;;;;;4991476;28;20415;-62
2020/12/11 01:43:44;;;;;;;24.42;16.70;;;0.90;1.00;;;;;;4991673;28;20472;-60
2020/12/11 01:46:15;;;;;;;28.13;19.48;;;0.90;1.00;;;;;;4991497;28;20418;-61
2020/12/11 01:48:41;;;;;;;24.37;17.60;;;1.00;1.00;;;;;;4991287;28;20406;-60
2020/12/11 01:51:08;;;;;;;23.33;16.60;;;1.00;1.00;;;;;;4991173;28;20425;-62
2020/12/11 01:53:36;;;;;;;25.20;17.30;;;1.00;1.00;;;;;;4991543;28;20418;-59
2020/12/11 01:56:06;;;;;;;24.85;16.70;;;1.00;1.00;;;;;;4991604;28;21072;-62
2020/12/11 01:58:37;;;;;;;26.23;17.58;;;1.00;1.00;;;;;;4991101;28;20827;-60
2020/12/11 02:01:04;;;;;;;25.40;17.80;;;1.10;1.00;;;;;;4991470;28;20461;-56
2020/12/11 02:03:30;;;;;;;26.00;18.95;;;1.10;1.00;;;;;;4991389;28;20933;-59
2020/12/11 02:05:57;;;;;;;25.30;17.90;;;1.10;1.00;;;;;;4991290;28;20426;-63
2020/12/11 02:08:24;;;;;;;26.70;19.35;;;1.10;1.00;;;;;;4991131;28;20899;-62
2020/12/11 02:10:50;;;;;;;26.60;18.05;;;1.10;1.00;;;;;;4990955;28;20454;-63
2020/12/11 02:13:17;;;;;;;29.17;19.10;;;1.10;1.00;;;;;;4991331;28;20418;-62
2020/12/11 02:15:43;;;;;;;26.13;18.27;;;1.10;1.00;;;;;;4991447;28;20417;-62
2020/12/11 02:18:09;;;;;;;25.80;18.07;;;1.20;1.00;;;;;;4991113;28;20461;-62
2020/12/11 02:20:36;;;;;;;27.48;19.48;;;1.20;1.00;;;;;;4991300;28;20415;-62
2020/12/11 02:23:03;;;;;;;24.83;16.88;;;1.20;1.00;;;;;;4991103;28;20423;-62
2020/12/11 02:25:29;;;;;;;25.38;18.35;;;1.20;1.00;;;;;;4991375;28;20418;-61
2020/12/11 02:27:55;;;;;;;25.25;18.27;;;1.20;1.00;;;;;;4991082;28;20419;-63
2020/12/11 02:30:21;;;;;;;25.90;18.92;;;1.20;1.00;;;;;;4990943;28;20426;-62
2020/12/11 02:32:47;;;;;;;26.00;18.67;;;1.20;1.00;;;;;;4991012;28;20427;-60
2020/12/11 02:35:14;;;;;;;26.90;18.55;;;1.20;1.00;;;;;;4992244;28;20472;-62
2020/12/11 02:37:40;;;;;;;27.75;18.85;;;1.20;1.00;;;;;;4994297;28;20476;-59
2020/12/11 02:40:08;;;;;;;26.25;19.45;;;1.10;1.00;;;;;;4994497;28;20514;-61
2020/12/11 02:42:35;;;;;;;26.98;19.05;;;1.10;1.00;;;;;;4994513;28;20895;-59
2020/12/11 02:45:01;;;;;;;25.90;17.90;;;1.10;1.00;;;;;;4994375;28;20414;-60
2020/12/11 02:47:32;;;;;;;26.42;18.88;;;1.10;1.00;;;;;;4993890;28;20829;-60
2020/12/11 02:49:59;;;;;;;26.25;19.33;;;1.10;1.00;;;;;;4994398;28;20508;-62
2020/12/11 02:52:25;;;;;;;26.15;19.15;;;1.00;1.00;;;;;;4994269;28;20453;-60
2020/12/11 02:54:51;;;;;;;26.57;19.70;;;1.00;1.00;;;;;;4994301;28;20419;-62
2020/12/11 02:57:18;;;;;;;27.30;19.30;;;1.10;1.00;;;;;;4994089;28;20410;-57
2020/12/11 02:59:44;;;;;;;25.98;18.33;;;1.10;1.00;;;;;;4993842;28;20418;-63
2020/12/11 03:02:10;;;;;;;26.45;19.23;;;1.10;1.00;;;;;;4994288;28;20834;-61
2020/12/11 03:04:36;;;;;;;26.45;18.30;;;1.10;1.00;;;;;;4994044;28;20418;-62
2020/12/11 03:07:02;;;;;;;24.25;18.02;;;1.10;1.00;;;;;;4993971;28;20418;-63
2020/12/11 03:09:28;;;;;;;24.57;17.93;;;1.10;1.00;;;;;;4993971;28;20414;-60
2020/12/11 03:11:55;;;;;;;26.55;18.17;;;1.10;1.00;;;;;;4993850;28;20554;-62
2020/12/11 03:14:21;;;;;;;24.63;17.85;;;1.00;1.00;;;;;;4993748;28;20415;-62
2020/12/11 03:16:48;;;;;;;24.90;18.10;;;1.00;1.00;;;;;;4993748;28;20418;-59
2020/12/11 03:19:14;;;;;;;26.67;18.10;;;1.10;1.00;;;;;;4994181;28;20784;-61
2020/12/11 03:21:40;;;;;;;25.90;18.63;;;1.10;1.00;;;;;;4993814;28;20417;-62
2020/12/11 03:24:06;;;;;;;23.95;17.65;;;1.10;1.00;;;;;;4993661;28;20410;-62
2020/12/11 03:26:32;;;;;;;24.05;17.15;;;1.00;1.00;;;;;;4993660;28;20415;-62
2020/12/11 03:28:58;;;;;;;24.17;17.90;;;1.00;1.00;;;;;;4993319;28;20452;-62
2020/12/11 03:31:27;;;;;;;24.83;17.02;;;1.00;1.00;;;;;;4993885;28;20507;-62
2020/12/11 03:33:53;;;;;;;24.33;17.38;;;1.00;1.00;;;;;;4993562;28;20417;-62
2020/12/11 03:36:19;;;;;;;23.07;16.60;;;1.00;1.00;;;;;;4993560;28;20499;-62
2020/12/11 03:38:46;;;;;;;22.67;16.67;;;1.00;1.00;;;;;;4993449;28;20418;-60
2020/12/11 03:41:14;;;;;;;22.52;16.38;;;1.10;1.00;;;;;;4993423;28;20808;-61
2020/12/11 03:43:41;;;;;;;22.50;16.27;;;1.00;1.00;;;;;;4993661;28;20418;-59
2020/12/11 03:46:07;;;;;;;21.88;16.70;;;1.10;1.00;;;;;;4993301;28;20488;-62
2020/12/11 03:48:34;;;;;;;22.17;16.25;;;1.10;1.00;;;;;;4993212;28;20419;-62
2020/12/11 03:51:00;;;;;;;21.02;14.88;;;1.10;1.00;;;;;;4993561;28;20426;-62
2020/12/11 03:53:26;;;;;;;22.48;15.98;;;1.10;1.00;;;;;;4992953;28;20418;-63
2020/12/11 03:55:52;;;;;;;19.65;15.45;;;1.00;1.00;;;;;;4993216;28;20461;-62
2020/12/11 03:58:18;;;;;;;21.10;14.60;;;1.10;1.00;;;;;;4992928;28;20481;-62
2020/12/11 04:00:44;;;;;;;18.23;13.90;;;1.00;1.00;;;;;;4993308;28;20411;-61
2020/12/11 04:03:10;;;;;;;17.42;13.55;;;0.90;1.00;;;;;;4993111;28;20473;-60
2020/12/11 04:05:37;;;;;;;19.48;14.55;;;1.00;1.00;;;;;;4992851;28;20414;-61
2020/12/11 04:08:03;;;;;;;20.40;14.25;;;1.00;1.00;;;;;;4993192;28;20410;-63
2020/12/11 04:10:29;;;;;;;19.10;14.32;;;1.10;1.00;;;;;;4993414;28;20977;-62
2020/12/11 04:12:57;;;;;;;19.08;14.27;;;1.00;1.00;;;;;;4994110;28;20418;-62
2020/12/11 04:15:23;;;;;;;19.45;14.35;;;1.00;1.00;;;;;;4994191;28;20454;-61
2020/12/11 04:17:49;;;;;;;19.50;14.55;;;1.00;1.00;;;;;;4993829;28;20426;-62
2020/12/11 04:20:15;;;;;;;19.42;14.60;;;1.10;1.00;;;;;;4993987;28;20421;-61
2020/12/11 04:22:42;;;;;;;19.00;14.35;;;1.20;1.00;;;;;;4993911;28;20549;-62
2020/12/11 04:25:08;;;;;;;17.93;13.90;;;1.20;1.00;;;;;;4993799;28;20958;-62
2020/12/11 04:27:34;;;;;;;16.70;13.10;;;1.20;99.90;;;;;;4993400;28;20418;-63
2020/12/11 04:30:01;;;;;;;17.75;14.65;;;1.20;99.90;;;;;;4992344;28;20847;-62
2020/12/11 04:32:27;;;;;;;17.37;12.90;;;1.20;99.90;;;;;;4992682;28;20512;-61
2020/12/11 04:34:53;;;;;;;18.35;12.73;;;1.20;99.90;;;;;;4992535;28;20484;-60
2020/12/11 04:37:19;;;;;;;17.20;13.50;;;1.20;1.00;;;;;;4992003;28;20418;-62
2020/12/11 04:39:46;;;;;;;19.00;14.00;;;1.20;99.90;;;;;;4992106;28;20532;-60
2020/12/11 04:42:13;;;;;;;18.60;13.90;;;1.20;99.90;;;;;;4992444;28;20414;-62
2020/12/11 04:44:39;;;;;;;17.47;13.33;;;1.30;99.90;;;;;;4992121;28;20974;-60
2020/12/11 04:47:06;;;;;;;17.33;13.77;;;1.30;99.90;;;;;;4992116;28;20468;-60
2020/12/11 04:49:35;;;;;;;18.33;13.23;;;1.40;99.90;;;;;;4992132;28;20459;-63
2020/12/11 04:52:05;;;;;;;19.63;14.00;;;1.40;99.90;;;;;;4991859;28;20406;-63
2020/12/11 04:54:36;;;;;;;18.50;13.63;;;1.40;99.90;;;;;;4991981;28;20418;-62
2020/12/11 04:57:04;;;;;;;16.95;13.18;;;1.40;99.90;;;;;;4992098;28;20418;-58
2020/12/11 04:59:30;;;;;;;16.17;12.93;;;1.40;99.90;;;;;;4991790;28;20469;-63
2020/12/11 05:01:59;;;;;;;16.85;13.02;;;1.40;99.90;;;;;;4992086;28;20768;-60
2020/12/11 05:04:26;;;;;;;17.77;13.38;;;1.40;99.90;;;;;;4991845;28;20414;-61
2020/12/11 05:06:52;;;;;;;16.30;13.43;;;1.40;99.90;;;;;;4991566;28;20435;-60
2020/12/11 05:09:20;;;;;;;15.33;12.70;;;1.40;99.90;;;;;;4992040;28;20476;-61
2020/12/11 05:11:47;;;;;;;15.02;13.05;;;1.40;99.90;;;;;;4991662;28;20456;-60
2020/12/11 05:14:21;;;;;;;16.42;12.13;;;1.40;99.90;;;;;;4991775;28;20883;-62
2020/12/11 05:17:08;;;;;;;18.48;13.25;;;1.50;99.90;;;;;;4991442;28;20485;-63
2020/12/11 05:19:49;;;;;;;16.33;12.52;;;1.60;99.90;;;;;;4986863;28;20902;-62
2020/12/11 05:22:15;;;;;;;17.17;13.73;;;1.50;99.90;;;;;;4989787;28;20480;-61
2020/12/11 05:24:43;;;;;;;18.50;13.45;;;1.40;99.90;;;;;;5002729;28;20463;-63
2020/12/11 05:27:34;;;;;;;17.13;13.50;;;1.40;99.90;;;;;;5010884;28;20412;-62
2020/12/11 05:30:16;;;;;;;17.97;13.77;;;1.40;99.90;;;;;;5010443;28;20428;-63
2020/12/11 05:32:44;;;;;;;14.32;11.90;;;1.40;99.90;;;;;;5010944;28;20416;-62
2020/12/11 05:35:22;;;;;;;16.95;13.05;;;1.50;99.90;;;;;;5010810;28;20412;-61
2020/12/11 05:37:49;;;;;;;15.95;13.15;;;1.60;99.90;;;;;;5010846;28;20421;-62
2020/12/11 05:40:16;;;;;;;15.52;13.10;;;1.50;99.90;;;;;;5010740;28;20413;-62
2020/12/11 05:42:43;;;;;;;16.10;12.93;;;1.40;99.90;;;;;;5011209;28;20416;-62
2020/12/11 05:45:17;;;;;;;16.00;12.98;;;1.30;99.90;;;;;;5010922;28;20829;-62
2020/12/11 05:47:43;;;;;;;17.58;13.30;;;1.30;99.90;;;;;;5010749;28;20417;-62
2020/12/11 05:50:10;;;;;;;16.48;12.82;;;1.30;99.90;;;;;;5010882;28;20463;-62
2020/12/11 05:52:36;;;;;;;14.95;11.95;;;1.40;99.90;;;;;;5010686;28;20417;-62
2020/12/11 05:55:02;;;;;;;17.30;13.40;;;1.30;99.90;;;;;;5011028;28;20455;-63
2020/12/11 05:57:33;;;;;;;17.38;13.15;;;1.30;99.90;;;;;;5010688;28;20783;-63
2020/12/11 06:00:00;;;;;;;16.05;12.70;;;1.20;99.90;;;;;;5010892;28;20416;-59
2020/12/11 06:02:30;;;;;;;16.67;13.30;;;1.30;99.90;;;;;;5011094;28;20424;-61
2020/12/11 06:04:57;;;;;;;17.92;13.30;;;1.20;99.90;;;;;;5010961;28;20472;-63
2020/12/11 06:07:25;;;;;;;16.92;13.32;;;1.30;99.90;;;;;;5010446;28;20447;-62
2020/12/11 06:09:51;;;;;;;18.90;14.45;;;1.10;99.90;;;;;;5011473;28;20467;-63
2020/12/11 06:12:28;;;;;;;18.23;13.60;;;1.20;99.90;;;;;;5014871;28;20459;-61
2020/12/11 06:15:04;;;;;;;18.05;13.75;;;1.10;99.90;;;;;;5014572;28;20447;-62
2020/12/11 06:17:33;;;;;;;18.77;13.95;;;1.20;99.90;;;;;;5014088;28;20421;-61
2020/12/11 06:20:01;;;;;;;18.15;14.07;;;1.30;99.90;;;;;;5014269;28;20430;-62
2020/12/11 06:22:28;;;;;;;18.13;14.18;;;1.30;99.90;;;;;;5014309;28;20436;-62
2020/12/11 06:24:54;;;;;;;19.57;13.80;;;1.40;99.90;;;;;;5014199;28;20423;-60
2020/12/11 06:27:30;;;;;;;19.90;14.70;;;1.30;99.90;;;;;;5014332;28;20447;-58
2020/12/11 06:29:56;;;;;;;19.02;14.77;;;1.40;99.90;;;;;;5014153;28;20419;-60
2020/12/11 06:32:33;;;;;;;18.50;14.50;;;1.40;99.90;;;;;;5014060;28;20417;-60
2020/12/11 06:35:10;;;;;;;16.55;14.02;;;1.40;99.90;;;;;;5014167;28;20412;-59
2020/12/11 06:37:37;;;;;;;17.95;14.60;;;1.40;99.90;;;;;;5005351;28;20909;-60
2020/12/11 06:40:03;;;;;;;18.30;14.30;;;1.50;99.90;;;;;;4974239;28;20467;-61
2020/12/11 06:42:43;;;;;;;18.42;14.10;;;1.50;99.90;;;;;;4974299;28;20416;-59
2020/12/11 06:45:24;;;;;;;18.23;14.43;;;1.50;99.90;;;;;;4974700;28;20420;-59
2020/12/11 06:47:53;;;;;;;16.27;13.32;;;1.60;99.90;;;;;;4974151;28;20781;-61
2020/12/11 06:50:21;;;;;;;13.75;11.38;;;1.50;99.90;;;;;;4974123;28;20431;-61
2020/12/11 06:52:48;;;;;;;17.73;14.73;;;1.60;99.90;;;;;;4974286;28;20420;-58
2020/12/11 06:55:14;;;;;;;17.02;13.30;;;1.60;99.90;;;;;;4974710;28;20420;-61
2020/12/11 06:57:42;;;;;;;18.27;14.17;;;1.60;99.90;;;;;;4974246;28;20482;-61
2020/12/11 07:00:36;;;;;;;16.85;13.38;;;1.60;99.90;;;;;;4973887;28;20427;-59
2020/12/11 07:03:24;;;;;;;17.08;13.23;;;1.60;99.90;;;;;;4939786;28;20427;-61
2020/12/11 07:06:10;;;;;;;14.30;12.10;;;1.60;99.90;;;;;;4974138;28;20435;-62
2020/12/11 07:08:37;;;;;;;17.05;14.00;;;1.70;99.90;;;;;;4973607;28;20478;-61
2020/12/11 07:11:11;;;;;;;16.77;13.53;;;1.60;99.90;;;;;;4973785;28;20498;-60
2020/12/11 07:13:46;;;;;;;15.55;12.73;;;1.60;99.90;;;;;;4974049;28;20499;-60
2020/12/11 07:16:13;;;;;;;14.50;12.60;;;1.60;99.90;;;;;;4974038;28;20833;-60
2020/12/11 07:18:42;;;;;;;14.27;12.20;;;1.60;99.90;;;;;;4973573;28;20467;-61
2020/12/11 07:21:08;;;;;;;16.70;14.50;;;1.60;99.90;;;;;;4973680;28;20442;-61
2020/12/11 07:23:35;;;;;;;14.30;11.82;;;1.70;99.90;;;;;;4973901;28;20475;-60
2020/12/11 07:26:01;;;;;;;15.98;12.57;;;1.70;99.90;;;;;;4973779;28;20416;-59
2020/12/11 07:28:27;;;;;;;17.83;12.98;;;1.70;99.90;;;;;;4973209;28;20420;-60
2020/12/11 07:30:53;;;;;;;16.60;12.55;;;1.70;99.90;;;;;;4973361;28;20436;-60
2020/12/11 07:33:19;;;;;;;16.48;12.65;;;1.80;99.90;;;;;;4973633;28;20901;-56
2020/12/11 07:35:48;;;;;;;17.20;13.27;;;1.80;99.90;;;;;;4973889;28;20486;-60
2020/12/11 07:38:16;;;;;;;17.08;12.48;;;1.80;99.90;;;;;;4972217;28;20451;-60
2020/12/11 07:40:42;;;;;;;15.70;12.80;;;1.80;99.90;;;;;;4972165;28;20451;-61
2020/12/11 07:43:10;;;;;;;14.80;12.10;;;1.80;99.90;;;;;;4974268;28;20486;-61
2020/12/11 07:45:37;;;;;;;15.90;12.37;;;1.80;99.90;;;;;;5011539;28;20909;-58
2020/12/11 07:48:04;;;;;;;17.05;12.05;;;1.80;99.90;;;;;;5011364;28;20427;-59
2020/12/11 07:50:31;;;;;;;15.60;12.45;;;1.90;99.90;;;;;;5010924;28;20424;-59
2020/12/11 07:52:59;;;;;;;17.13;13.30;;;1.90;99.90;;;;;;5011540;28;20474;-61
2020/12/11 07:55:29;;;;;;;14.90;12.10;;;1.90;99.90;;;;;;5011305;28;20633;-61
2020/12/11 07:57:56;;;;;;;14.23;11.37;;;2.00;99.90;;;;;;5011099;28;20911;-61
2020/12/11 08:00:23;;;;;;;15.90;11.70;;;2.00;99.90;;;;;;5011143;28;20423;-61
2020/12/11 08:02:54;;;;;;;13.00;11.07;;;2.00;99.90;;;;;;5010137;28;20409;-59
2020/12/11 08:05:22;;;;;;;13.63;11.57;;;2.10;99.90;;;;;;4990106;28;20456;-60
2020/12/11 08:07:50;;;;;;;16.38;12.55;;;2.20;99.90;;;;;;4990625;28;20854;-61
2020/12/11 08:10:19;;;;;;;15.43;12.43;;;2.20;99.90;;;;;;4990788;28;20410;-60
2020/12/11 08:12:46;;;;;;;14.60;12.30;;;2.30;99.90;;;;;;4991717;28;20444;-64
2020/12/11 08:15:28;;;;;;;16.60;12.45;;;2.20;99.90;;;;;;4991574;28;20449;-63
2020/12/11 08:18:22;;;;;;;14.15;11.32;;;2.40;99.90;;;;;;4991339;28;20420;-59
2020/12/11 08:20:53;;;;;;;16.08;13.25;;;2.50;99.90;;;;;;4991130;28;20419;-62
2020/12/11 08:23:24;;;;;;;15.50;13.00;;;2.60;99.90;;;;;;4991490;28;20422;-61
2020/12/11 08:26:14;;;;;;;15.00;11.77;;;2.70;99.90;;;;;;4991502;28;20477;-61
2020/12/11 08:28:41;;;;;;;12.73;11.35;;;2.80;99.90;;;;;;4990812;28;20878;-61
2020/12/11 08:31:25;;;;;;;14.60;12.00;;;2.70;99.90;;;;;;4990908;28;20434;-61
2020/12/11 08:34:01;;;;;;;15.77;12.32;;;2.90;99.90;;;;;;4990734;28;20410;-61
2020/12/11 08:36:29;;;;;;;12.50;10.60;;;3.00;99.90;;;;;;4949108;28;1220311;-57
2020/12/11 08:39:13;;;;;;;12.15;10.30;;;3.10;99.90;;;;;;4991193;28;20414;-61
2020/12/11 08:41:44;;;;;;;12.98;11.02;;;3.20;99.90;;;;;;4991776;28;20410;-61
2020/12/11 08:44:26;;;;;;;15.50;12.60;;;3.20;99.90;;;;;;4991921;28;20406;-64
2020/12/11 08:49:48;;;;;;;11.93;10.32;;;3.00;99.90;;;;;;4977956;28;20418;-61
2020/12/11 08:52:14;;;;;;;14.20;10.70;;;3.00;99.90;;;;;;4991254;28;20430;-62
2020/12/11 08:54:40;;;;;;;13.77;11.00;;;3.00;99.90;;;;;;4991796;28;20414;-61
2020/12/11 08:57:08;;;;;;;12.27;9.93;;;3.00;99.90;;;;;;4991442;28;20417;-62
2020/12/11 08:59:34;;;;;;;11.87;10.67;;;2.90;99.90;;;;;;4991588;28;20418;-62
2020/12/11 09:02:01;;;;;;;13.40;11.20;;;3.00;99.90;;;;;;4991499;28;20407;-61
2020/12/11 09:04:27;;;;;;;11.88;9.68;;;2.90;99.90;;;;;;4991172;28;20415;-62
2020/12/11 09:06:53;;;;;;;12.82;9.77;;;3.00;99.90;;;;;;4991645;28;20410;-62
2020/12/11 09:09:19;;;;;;;11.65;9.48;;;3.00;99.90;;;;;;4990829;28;20473;-61
2020/12/11 09:11:45;;;;;;;12.40;10.00;;;3.00;99.90;;;;;;4991234;28;20855;-62
2020/12/11 09:14:12;;;;;;;13.10;11.67;;;3.00;99.90;;;;;;4991460;28;20461;-62
2020/12/11 09:16:39;;;;;;;11.20;9.40;;;3.10;99.90;;;;;;4991286;28;20938;-61
2020/12/11 09:19:05;;;;;;;12.43;10.55;;;3.20;99.90;;;;;;4990342;28;20783;-61
2020/12/11 09:21:31;;;;;;;11.18;10.00;;;3.10;99.90;;;;;;4990866;28;20415;-61
2020/12/11 09:23:57;;;;;;;11.47;9.97;;;3.30;99.90;;;;;;4991560;28;20556;-62
2020/12/11 09:26:26;;;;;;;11.45;9.90;;;3.30;99.90;;;;;;4991320;28;20418;-62
2020/12/11 09:28:57;;;;;;;12.95;10.55;;;3.20;99.90;;;;;;4990330;28;20427;-62
2020/12/11 09:31:26;;;;;;;12.90;10.43;;;3.30;99.90;;;;;;4990505;28;20470;-63
2020/12/11 09:33:52;;;;;;;12.13;8.88;;;3.30;99.90;;;;;;4990954;28;20909;-61
2020/12/11 09:36:18;;;;;;;11.40;10.20;;;3.30;99.90;;;;;;4991241;28;20418;-61
2020/12/11 09:38:45;;;;;;;10.05;8.82;;;3.40;99.90;;;;;;4991004;28;20461;-61
2020/12/11 09:41:14;;;;;;;10.65;8.77;;;3.40;99.90;;;;;;4990737;28;20406;-62
2020/12/11 09:44:00;;;;;;;11.68;9.88;;;3.60;99.90;;;;;;4991010;28;20958;-62
2020/12/11 09:46:34;;;;;;;11.55;9.80;;;3.50;99.90;;;;;;4994485;28;20787;-61
2020/12/11 09:49:04;;;;;;;13.13;9.98;;;3.50;99.90;;;;;;4994526;28;20422;-63
2020/12/11 09:51:51;;;;;;;12.70;10.30;;;3.60;99.90;;;;;;4994672;28;20943;-62
2020/12/11 09:54:21;;;;;;;10.60;8.70;;;3.60;99.90;;;;;;4994740;28;20426;-61
2020/12/11 09:56:47;;;;;;;11.40;9.18;;;3.50;99.90;;;;;;4995272;28;20425;-61
2020/12/11 09:59:16;;;;;;;11.13;9.68;;;3.60;99.90;;;;;;4994157;28;20415;-62
2020/12/11 10:01:57;;;;;;;11.53;9.40;;;3.70;99.90;;;;;;4994808;28;20419;-63
2020/12/11 10:04:23;;;;;;;10.57;9.48;;;3.70;99.90;;;;;;4994773;28;20429;-61
2020/12/11 10:06:51;;;;;;;11.02;9.07;;;3.80;99.90;;;;;;4994518;28;20891;-62
2020/12/11 10:09:17;;;;;;;11.43;10.00;;;4.00;99.90;;;;;;4994100;28;20488;-61
2020/12/11 10:11:43;;;;;;;11.68;9.85;;;3.90;99.90;;;;;;4994423;28;20441;-62
2020/12/11 10:16:52;;;;;;;11.25;9.63;;;4.10;99.90;;;;;;4992769;28;20505;-58
2020/12/11 10:19:18;;;;;;;10.05;9.05;;;4.10;99.90;;;;;;4993647;28;20418;-58
2020/12/11 10:21:46;;;;;;;10.70;9.50;;;4.00;99.90;;;;;;4994556;28;21000;-62
2020/12/11 10:24:12;;;;;;;12.20;9.52;;;4.10;99.90;;;;;;4994229;28;20422;-62
2020/12/11 10:26:39;;;;;;;12.00;9.55;;;4.10;99.90;;;;;;4994418;28;20438;-63
2020/12/11 10:29:05;;;;;;;11.48;9.70;;;4.10;99.90;;;;;;4993405;28;20914;-63
2020/12/11 10:31:31;;;;;;;11.10;9.60;;;4.20;99.90;;;;;;4993596;28;20434;-63
2020/12/11 10:33:58;;;;;;;11.40;9.10;;;4.30;99.90;;;;;;4994262;28;20418;-65
2020/12/11 10:36:29;;;;;;;11.05;9.10;;;4.40;99.90;;;;;;4994282;28;20410;-63
2020/12/11 10:38:55;;;;;;;10.82;9.65;;;4.50;99.90;;;;;;4994013;28;20453;-64
2020/12/11 10:41:22;;;;;;;10.52;9.23;;;4.50;99.90;;;;;;4994139;28;20414;-65
2020/12/11 10:43:48;;;;;;;10.38;9.07;;;4.50;99.90;;;;;;4994094;28;20418;-65
2020/12/11 10:46:14;;;;;;;11.27;9.00;;;4.50;99.90;;;;;;4994046;28;20473;-59
2020/12/11 10:48:40;;;;;;;11.55;9.65;;;4.60;99.90;;;;;;4993240;28;20899;-57
2020/12/11 10:51:10;;;;;;;10.80;8.57;;;4.60;99.90;;;;;;4993843;28;20472;-60
2020/12/11 10:53:37;;;;;;;9.95;8.80;;;4.70;99.90;;;;;;4993967;28;20422;-59
2020/12/11 10:56:05;;;;;;;9.87;8.43;;;4.50;99.90;;;;;;4993266;28;20800;-56
2020/12/11 10:58:31;;;;;;;10.43;8.90;;;4.50;99.90;;;;;;4993499;28;20427;-59
2020/12/11 11:00:57;;;;;;;10.52;8.07;;;4.70;99.90;;;;;;4993309;28;20468;-60
2020/12/11 11:03:27;;;;;;;12.20;8.40;;;4.60;99.90;;;;;;4993642;28;20426;-60
2020/12/11 11:05:53;;;;;;;11.63;9.57;;;4.60;99.90;;;;;;4993560;28;20922;-58
2020/12/11 11:08:21;;;;;;;10.60;9.15;;;4.60;99.90;;;;;;4993460;28;20434;-63
2020/12/11 11:10:49;;;;;;;10.27;8.63;;;4.60;99.90;;;;;;4993684;28;20437;-60
2020/12/11 11:13:23;;;;;;;9.90;8.90;;;4.70;99.90;;;;;;4993401;28;20429;-60
2020/12/11 11:15:51;;;;;;;10.55;8.35;;;4.80;99.90;;;;;;4993553;28;20481;-62
2020/12/11 11:18:40;;;;;;;10.35;8.95;;;4.70;99.90;;;;;;4993749;28;20791;-60
2020/12/11 11:24:14;;;;;;;10.15;8.32;;;4.60;99.90;;;;;;4995438;28;20410;-63
2020/12/11 11:26:55;;;;;;;9.05;8.15;;;4.70;99.90;;;;;;4993635;28;20525;-65
2020/12/11 11:29:21;;;;;;;10.25;8.40;;;4.60;99.90;;;;;;4992918;28;20418;-65
2020/12/11 11:31:47;;;;;;;9.10;8.18;;;4.70;99.90;;;;;;4992426;28;20426;-65
2020/12/11 11:34:13;;;;;;;10.65;9.02;;;4.70;99.90;;;;;;4993169;28;20418;-65
2020/12/11 11:36:39;;;;;;;9.43;7.50;;;4.70;99.90;;;;;;4993100;28;20545;-65
2020/12/11 11:39:06;;;;;;;10.77;7.85;;;4.80;99.90;;;;;;4993107;28;20469;-63
2020/12/11 11:41:44;;;;;;;8.80;7.90;;;4.80;99.90;;;;;;4993829;28;20473;-63
2020/12/11 11:44:30;;;;;;;10.10;7.65;;;4.90;99.90;;;;;;4993560;28;20538;-61
2020/12/11 11:46:57;;;;;;;10.35;8.40;;;4.90;99.90;;;;;;4992624;28;20420;-62
2020/12/11 11:49:26;;;;;;;8.43;7.60;;;5.00;99.90;;;;;;4992686;28;20449;-63
2020/12/11 11:51:59;;;;;;;9.52;7.75;;;5.00;99.90;;;;;;4992634;28;20430;-62
2020/12/11 11:54:26;;;;;;;8.80;7.15;;;5.10;99.90;;;;;;4992731;28;20834;-63
2020/12/11 11:56:52;;;;;;;10.85;7.93;;;5.10;99.90;;;;;;4992375;28;20643;-62
2020/12/11 11:59:18;;;;;;;9.38;7.32;;;5.20;99.90;;;;;;4992182;28;20414;-63
2020/12/11 12:01:45;;;;;;;10.00;8.30;;;5.20;99.90;;;;;;4992845;28;20418;-60
2020/12/11 12:04:11;;;;;;;8.77;7.53;;;5.30;99.90;;;;;;4992854;28;20461;-62
2020/12/11 12:06:37;;;;;;;8.02;6.97;;;5.30;99.90;;;;;;4992789;28;20887;-63
2020/12/11 12:09:03;;;;;;;11.05;7.85;;;5.20;99.90;;;;;;4991423;28;20485;-62
2020/12/11 12:11:30;;;;;;;9.85;8.00;;;5.10;99.90;;;;;;4992564;28;20484;-63
2020/12/11 12:13:57;;;;;;;9.63;8.48;;;5.00;99.90;;;;;;4992172;28;20422;-63
2020/12/11 12:16:23;;;;;;;8.70;7.80;;;4.90;99.90;;;;;;4992507;28;20473;-62
2020/12/11 12:18:52;;;;;;;9.70;8.15;;;4.70;99.90;;;;;;4992018;28;20414;-59
2020/12/11 12:21:25;;;;;;;11.32;9.15;;;4.70;99.90;;;;;;4992260;28;20417;-65
2020/12/11 12:29:16;;;;;;;9.60;8.03;;;4.80;1.00;;;;;;4991855;28;20633;-65
2020/12/11 12:31:44;;;;;;;9.77;8.25;;;4.70;1.00;;;;;;4992305;28;20505;-64
2020/12/11 12:37:23;;;;;;;10.60;8.63;;;4.50;1.00;;;;;;4978704;28;20410;-65
2020/12/11 12:43:07;;;;;;;11.40;8.95;;;4.60;1.00;;;;;;4991810;28;20751;-63
2020/12/11 12:45:33;;;;;;;10.20;8.18;;;4.60;1.00;;;;;;4991718;28;20807;-61
2020/12/11 12:47:59;;;;;;;10.93;9.07;;;4.60;1.00;;;;;;4991579;28;20893;-61
2020/12/11 12:50:26;;;;;;;11.80;8.35;;;4.60;1.00;;;;;;4991378;28;20449;-62
2020/12/11 12:52:52;;;;;;;10.77;9.15;;;4.70;1.00;;;;;;4991518;28;20465;-62
2020/12/11 12:55:21;;;;;;;12.23;8.90;;;4.50;1.00;;;;;;4991690;28;20421;-62
2020/12/11 12:57:51;;;;;;;10.07;8.27;;;4.60;1.00;;;;;;4991373;28;20765;-65
2020/12/11 13:00:24;;;;;;;10.80;9.17;;;4.50;1.00;;;;;;4991211;28;20783;-65
2020/12/11 13:03:12;;;;;;;11.02;8.30;;;4.50;1.00;;;;;;4992016;28;20465;-65
2020/12/11 13:05:38;;;;;;;9.90;7.80;;;4.50;1.00;;;;;;4991441;28;20418;-63
2020/12/11 13:08:04;;;;;;;10.50;8.37;;;4.60;1.00;;;;;;4991246;28;20421;-65
2020/12/11 13:10:30;;;;;;;11.50;8.52;;;4.60;1.00;;;;;;4991020;28;20775;-62